sensor_id;sensor_type;location;lat;lon;timestamp;temperature;humidity
31975;DHT22;18500;43.618;1.474;2023-07-13T06:07:04;19.10;1.00
31975;DHT22;18500;43.618;1.474;2023-07-13T06:09:30;19.00;1.00
31975;DHT22;18500;43.618;1.474;2023-07-13T06:11:55;19.10;1.00
31975;DHT22;18500;43.618;1.474;2023-07-13T06:14:21;19.10;1.00
31975;DHT22;18500;43.618;1.474;2023-07-13T06:16:47;19.20;1.00
31975;DHT22;18500;43.618;1.474;2023-07-13T06:19:12;19.30;1.00
31975;DHT22;18500;43.618;1.474;2023-07-13T06:21:38;19.60;1.00
31975;DHT22;18500;43.618;1.474;2023-07-13T06:24:03;19.50;1.00
31975;DHT22;18500;43.618;1.474;2023-07-13T06:26:29;19.50;1.00
31975;DHT22;18500;43.618;1.474;2023-07-13T06:28:54;19.40;1.00
31975;DHT22;18500;43.618;1.474;2023-07-13T06:31:20;19.40;1.00
31975;DHT22;18500;43.618;1.474;2023-07-13T06:33:46;19.50;1.00
31975;DHT22;18500;43.618;1.474;2023-07-13T06:36:11;19.60;1.00
31975;DHT22;18500;43.618;1.474;2023-07-13T06:38:37;19.60;1.00
31975;DHT22;18500;43.618;1.474;2023-07-13T06:41:03;19.60;1.00
31975;DHT22;18500;43.618;1.474;2023-07-13T06:43:29;19.90;1.00
31975;DHT22;18500;43.618;1.474;2023-07-13T06:45:56;20.10;1.00
31975;DHT22;18500;43.618;1.474;2023-07-13T06:48:22;20.00;1.00
31975;DHT22;18500;43.618;1.474;2023-07-13T06:50:48;19.70;1.00
31975;DHT22;18500;43.618;1.474;2023-07-13T06:53:15;20.00;1.00
31975;DHT22;18500;43.618;1.474;2023-07-13T06:55:43;20.30;1.00
31975;DHT22;18500;43.618;1.474;2023-07-13T06:58:08;20.50;1.00
31975;DHT22;18500;43.618;1.474;2023-07-13T07:00:34;20.60;1.00
31975;DHT22;18500;43.618;1.474;2023-07-13T07:02:59;20.70;1.00
31975;DHT22;18500;43.618;1.474;2023-07-13T07:05:25;20.70;1.00
31975;DHT22;18500;43.618;1.474;2023-07-13T07:07:51;20.50;1.00
31975;DHT22;18500;43.618;1.474;2023-07-13T07:10:17;20.50;1.00
31975;DHT22;18500;43.618;1.474;2023-07-13T07:12:43;20.30;1.00
31975;DHT22;18500;43.618;1.474;2023-07-13T07:15:08;20.20;1.00
31975;DHT22;18500;43.618;1.474;2023-07-13T07:17:34;20.30;1.00
31975;DHT22;18500;43.618;1.474;2023-07-13T07:19:59;20.60;1.00
31975;DHT22;18500;43.618;1.474;2023-07-13T07:22:25;20.40;1.00
31975;DHT22;18500;43.618;1.474;2023-07-13T07:24:53;20.60;1.00
31975;DHT22;18500;43.618;1.474;2023-07-13T07:27:18;20.90;1.00
31975;DHT22;18500;43.618;1.474;2023-07-13T07:29:44;21.00;1.00
31975;DHT22;18500;43.618;1.474;2023-07-13T07:32:09;20.90;1.00
31975;DHT22;18500;43.618;1.474;2023-07-13T07:34:35;21.00;1.00
31975;DHT22;18500;43.618;1.474;2023-07-13T07:37:01;21.10;1.00
31975;DHT22;18500;43.618;1.474;2023-07-13T07:39:26;21.00;1.00
31975;DHT22;18500;43.618;1.474;2023-07-13T07:41:52;21.00;1.00
31975;DHT22;18500;43.618;1.474;2023-07-13T07:44:17;20.90;1.00
31975;DHT22;18500;43.618;1.474;2023-07-13T07:46:43;21.00;1.00
31975;DHT22;18500;43.618;1.474;2023-07-13T07:49:09;21.30;1.00
31975;DHT22;18500;43.618;1.474;2023-07-13T07:51:34;21.20;1.00
31975;DHT22;18500;43.618;1.474;2023-07-13T07:54:00;20.70;1.00
31975;DHT22;18500;43.618;1.474;2023-07-13T07:56:25;20.70;1.00
31975;DHT22;18500;43.618;1.474;2023-07-13T07:58:51;20.40;1.00
31975;DHT22;18500;43.618;1.474;2023-07-13T08:01:16;20.60;1.00
31975;DHT22;18500;43.618;1.474;2023-07-13T08:03:42;20.70;1.00
31975;DHT22;18500;43.618;1.474;2023-07-13T08:06:07;20.30;1.00
31975;DHT22;18500;43.618;1.474;2023-07-13T08:08:34;20.30;1.00
31975;DHT22;18500;43.618;1.474;2023-07-13T08:11:02;20.30;1.00
31975;DHT22;18500;43.618;1.474;2023-07-13T08:13:27;20.30;1.00
31975;DHT22;18500;43.618;1.474;2023-07-13T08:15:53;20.30;1.00
31975;DHT22;18500;43.618;1.474;2023-07-13T08:18:18;20.30;1.00
31975;DHT22;18500;43.618;1.474;2023-07-13T08:20:44;20.30;1.00
31975;DHT22;18500;43.618;1.474;2023-07-13T08:23:10;20.10;1.00
31975;DHT22;18500;43.618;1.474;2023-07-13T08:25:35;20.40;1.00
31975;DHT22;18500;43.618;1.474;2023-07-13T08:28:02;20.50;1.00
31975;DHT22;18500;43.618;1.474;2023-07-13T08:30:28;20.40;1.00
31975;DHT22;18500;43.618;1.474;2023-07-13T08:32:54;20.50;1.00
31975;DHT22;18500;43.618;1.474;2023-07-13T08:35:19;20.40;1.00
31975;DHT22;18500;43.618;1.474;2023-07-13T08:37:45;20.40;1.00
31975;DHT22;18500;43.618;1.474;2023-07-13T08:40:11;20.30;1.00
31975;DHT22;18500;43.618;1.474;2023-07-13T08:42:41;20.50;1.00
31975;DHT22;18500;43.618;1.474;2023-07-13T08:45:21;20.30;1.00
31975;DHT22;18500;43.618;1.474;2023-07-13T08:47:57;20.40;1.00
31975;DHT22;18500;43.618;1.474;2023-07-13T08:50:27;20.80;1.00
31975;DHT22;18500;43.618;1.474;2023-07-13T08:52:54;20.90;1.00
31975;DHT22;18500;43.618;1.474;2023-07-13T08:55:26;20.80;1.00
31975;DHT22;18500;43.618;1.474;2023-07-13T08:58:05;20.70;1.00
31975;DHT22;18500;43.618;1.474;2023-07-13T09:03:19;20.80;1.00
31975;DHT22;18500;43.618;1.474;2023-07-13T09:05:46;20.90;1.00
31975;DHT22;18500;43.618;1.474;2023-07-13T09:10:52;21.20;1.00
31975;DHT22;18500;43.618;1.474;2023-07-13T09:13:27;21.20;1.00
31975;DHT22;18500;43.618;1.474;2023-07-13T09:15:55;21.20;1.00
31975;DHT22;18500;43.618;1.474;2023-07-13T09:18:26;21.20;1.00
31975;DHT22;18500;43.618;1.474;2023-07-13T09:21:00;21.30;1.00
31975;DHT22;18500;43.618;1.474;2023-07-13T09:23:28;21.70;1.00
31975;DHT22;18500;43.618;1.474;2023-07-13T09:25:58;21.60;1.00
31975;DHT22;18500;43.618;1.474;2023-07-13T09:28:29;21.50;1.00
31975;DHT22;18500;43.618;1.474;2023-07-13T09:31:00;21.70;1.00
31975;DHT22;18500;43.618;1.474;2023-07-13T09:33:26;21.80;1.00
31975;DHT22;18500;43.618;1.474;2023-07-13T09:35:55;22.00;1.00
31975;DHT22;18500;43.618;1.474;2023-07-13T09:38:21;22.10;1.00
31975;DHT22;18500;43.618;1.474;2023-07-13T09:43:19;21.60;1.00
31975;DHT22;18500;43.618;1.474;2023-07-13T09:45:46;21.90;1.00
31975;DHT22;18500;43.618;1.474;2023-07-13T09:48:13;22.10;1.00
31975;DHT22;18500;43.618;1.474;2023-07-13T09:50:40;22.50;1.00
31975;DHT22;18500;43.618;1.474;2023-07-13T09:53:24;23.50;1.00
31975;DHT22;18500;43.618;1.474;2023-07-13T09:55:54;23.50;1.00
31975;DHT22;18500;43.618;1.474;2023-07-13T09:58:21;23.40;1.00
31975;DHT22;18500;43.618;1.474;2023-07-13T10:00:55;23.60;1.00
31975;DHT22;18500;43.618;1.474;2023-07-13T10:03:24;23.40;1.00
31975;DHT22;18500;43.618;1.474;2023-07-13T10:05:50;23.30;1.00
31975;DHT22;18500;43.618;1.474;2023-07-13T10:08:17;23.50;1.00
31975;DHT22;18500;43.618;1.474;2023-07-13T10:10:43;23.70;1.00
31975;DHT22;18500;43.618;1.474;2023-07-13T10:16:14;23.90;1.00
31975;DHT22;18500;43.618;1.474;2023-07-13T10:21:10;23.80;1.00
31975;DHT22;18500;43.618;1.474;2023-07-13T10:23:36;24.00;1.00
31975;DHT22;18500;43.618;1.474;2023-07-13T10:26:02;23.80;1.00
31975;DHT22;18500;43.618;1.474;2023-07-13T10:28:30;23.80;1.00
31975;DHT22;18500;43.618;1.474;2023-07-13T10:30:56;24.30;1.00
31975;DHT22;18500;43.618;1.474;2023-07-13T10:33:23;24.30;1.00
31975;DHT22;18500;43.618;1.474;2023-07-13T10:35:51;24.20;1.00
31975;DHT22;18500;43.618;1.474;2023-07-13T10:38:21;24.00;1.00
31975;DHT22;18500;43.618;1.474;2023-07-13T10:40:54;24.30;1.00
31975;DHT22;18500;43.618;1.474;2023-07-13T10:43:44;24.30;1.00
31975;DHT22;18500;43.618;1.474;2023-07-13T10:46:09;24.40;1.00
31975;DHT22;18500;43.618;1.474;2023-07-13T10:48:35;24.40;1.00
31975;DHT22;18500;43.618;1.474;2023-07-13T10:51:03;24.70;1.00
31975;DHT22;18500;43.618;1.474;2023-07-13T10:53:32;24.00;1.00
31975;DHT22;18500;43.618;1.474;2023-07-13T10:55:59;24.40;1.00
31975;DHT22;18500;43.618;1.474;2023-07-13T10:58:29;24.10;1.00
31975;DHT22;18500;43.618;1.474;2023-07-13T11:03:28;25.20;1.00
31975;DHT22;18500;43.618;1.474;2023-07-13T11:06:08;25.00;1.00
31975;DHT22;18500;43.618;1.474;2023-07-13T11:18:51;25.20;1.00
31975;DHT22;18500;43.618;1.474;2023-07-13T11:21:23;24.10;1.00
31975;DHT22;18500;43.618;1.474;2023-07-13T11:23:52;24.30;1.00
31975;DHT22;18500;43.618;1.474;2023-07-13T11:29:07;25.20;1.00
31975;DHT22;18500;43.618;1.474;2023-07-13T11:31:33;25.10;1.00
31975;DHT22;18500;43.618;1.474;2023-07-13T11:33:59;25.10;1.00
31975;DHT22;18500;43.618;1.474;2023-07-13T11:36:29;25.50;1.00
31975;DHT22;18500;43.618;1.474;2023-07-13T11:41:23;24.80;1.00
31975;DHT22;18500;43.618;1.474;2023-07-13T11:43:50;25.00;1.00
31975;DHT22;18500;43.618;1.474;2023-07-13T11:46:23;25.40;1.00
31975;DHT22;18500;43.618;1.474;2023-07-13T11:48:50;25.40;1.00
31975;DHT22;18500;43.618;1.474;2023-07-13T11:51:22;25.00;1.00
31975;DHT22;18500;43.618;1.474;2023-07-13T11:53:49;25.00;1.00
31975;DHT22;18500;43.618;1.474;2023-07-13T11:56:15;25.20;1.00
31975;DHT22;18500;43.618;1.474;2023-07-13T11:58:41;25.50;1.00
31975;DHT22;18500;43.618;1.474;2023-07-13T12:01:09;25.80;1.00
31975;DHT22;18500;43.618;1.474;2023-07-13T12:03:41;25.90;1.00
31975;DHT22;18500;43.618;1.474;2023-07-13T12:06:17;25.80;1.00
31975;DHT22;18500;43.618;1.474;2023-07-13T12:08:46;25.70;1.00
31975;DHT22;18500;43.618;1.474;2023-07-13T12:11:15;26.00;1.00
31975;DHT22;18500;43.618;1.474;2023-07-13T12:13:41;25.20;1.00
31975;DHT22;18500;43.618;1.474;2023-07-13T12:16:11;25.00;1.00
31975;DHT22;18500;43.618;1.474;2023-07-13T12:18:36;25.00;1.00
31975;DHT22;18500;43.618;1.474;2023-07-13T12:21:02;25.40;1.00
31975;DHT22;18500;43.618;1.474;2023-07-13T12:23:31;26.30;1.00
31975;DHT22;18500;43.618;1.474;2023-07-13T12:25:57;26.00;1.00
31975;DHT22;18500;43.618;1.474;2023-07-13T12:30:57;24.80;1.00
31975;DHT22;18500;43.618;1.474;2023-07-13T12:33:23;24.50;1.00
31975;DHT22;18500;43.618;1.474;2023-07-13T12:35:51;25.10;1.00
31975;DHT22;18500;43.618;1.474;2023-07-13T12:38:17;25.60;1.00
31975;DHT22;18500;43.618;1.474;2023-07-13T12:40:46;25.90;1.00
31975;DHT22;18500;43.618;1.474;2023-07-13T12:43:14;28.30;1.00
31975;DHT22;18500;43.618;1.474;2023-07-13T12:45:54;26.50;1.00
31975;DHT22;18500;43.618;1.474;2023-07-13T12:48:21;26.20;1.00
31975;DHT22;18500;43.618;1.474;2023-07-13T12:50:48;30.50;1.00
31975;DHT22;18500;43.618;1.474;2023-07-13T12:53:16;32.00;1.00
31975;DHT22;18500;43.618;1.474;2023-07-13T12:55:44;31.70;1.00
31975;DHT22;18500;43.618;1.474;2023-07-13T12:58:24;29.80;1.00
31975;DHT22;18500;43.618;1.474;2023-07-13T13:00:50;28.60;1.00
31975;DHT22;18500;43.618;1.474;2023-07-13T13:03:28;30.00;1.00
31975;DHT22;18500;43.618;1.474;2023-07-13T13:06:04;27.80;1.00
31975;DHT22;18500;43.618;1.474;2023-07-13T13:08:31;26.20;1.00
31975;DHT22;18500;43.618;1.474;2023-07-13T13:10:57;28.70;1.00
31975;DHT22;18500;43.618;1.474;2023-07-13T13:13:22;29.30;1.00
31975;DHT22;18500;43.618;1.474;2023-07-13T13:15:48;27.40;1.00
31975;DHT22;18500;43.618;1.474;2023-07-13T13:18:15;26.40;1.00
31975;DHT22;18500;43.618;1.474;2023-07-13T13:20:41;27.40;1.00
31975;DHT22;18500;43.618;1.474;2023-07-13T13:23:10;31.60;1.00
31975;DHT22;18500;43.618;1.474;2023-07-13T13:25:36;36.30;99.90
31975;DHT22;18500;43.618;1.474;2023-07-13T13:28:02;38.40;99.90
31975;DHT22;18500;43.618;1.474;2023-07-13T13:30:27;38.90;99.90
31975;DHT22;18500;43.618;1.474;2023-07-13T13:32:53;38.10;99.90
31975;DHT22;18500;43.618;1.474;2023-07-13T13:35:19;37.00;99.90
31975;DHT22;18500;43.618;1.474;2023-07-13T13:37:46;37.20;99.90
31975;DHT22;18500;43.618;1.474;2023-07-13T13:40:20;37.10;99.90
31975;DHT22;18500;43.618;1.474;2023-07-13T13:42:46;33.60;99.90
31975;DHT22;18500;43.618;1.474;2023-07-13T13:45:12;34.20;99.90
31975;DHT22;18500;43.618;1.474;2023-07-13T13:47:38;33.10;99.90
31975;DHT22;18500;43.618;1.474;2023-07-13T13:50:10;36.20;99.90
31975;DHT22;18500;43.618;1.474;2023-07-13T13:52:36;34.10;99.90
31975;DHT22;18500;43.618;1.474;2023-07-13T13:55:04;37.00;99.90
31975;DHT22;18500;43.618;1.474;2023-07-13T13:57:30;34.90;99.90
31975;DHT22;18500;43.618;1.474;2023-07-13T13:59:56;33.40;99.90
31975;DHT22;18500;43.618;1.474;2023-07-13T14:02:23;30.60;99.90
31975;DHT22;18500;43.618;1.474;2023-07-13T14:04:50;28.80;99.90
31975;DHT22;18500;43.618;1.474;2023-07-13T14:07:17;32.30;99.90
31975;DHT22;18500;43.618;1.474;2023-07-13T14:09:43;35.40;99.90
31975;DHT22;18500;43.618;1.474;2023-07-13T14:12:09;37.50;99.90
31975;DHT22;18500;43.618;1.474;2023-07-13T14:14:37;38.80;99.90
31975;DHT22;18500;43.618;1.474;2023-07-13T14:17:03;38.60;99.90
31975;DHT22;18500;43.618;1.474;2023-07-13T14:19:29;40.60;99.90
31975;DHT22;18500;43.618;1.474;2023-07-13T14:21:54;36.60;99.90
31975;DHT22;18500;43.618;1.474;2023-07-13T14:24:20;37.60;99.90
31975;DHT22;18500;43.618;1.474;2023-07-13T14:26:46;40.10;99.90
31975;DHT22;18500;43.618;1.474;2023-07-13T14:29:16;40.40;99.90
31975;DHT22;18500;43.618;1.474;2023-07-13T14:31:43;41.70;99.90
31975;DHT22;18500;43.618;1.474;2023-07-13T14:34:12;37.80;99.90
31975;DHT22;18500;43.618;1.474;2023-07-13T14:36:45;38.60;99.90
31975;DHT22;18500;43.618;1.474;2023-07-13T14:39:16;40.00;99.90
31975;DHT22;18500;43.618;1.474;2023-07-13T14:41:42;33.70;99.90
31975;DHT22;18500;43.618;1.474;2023-07-13T14:44:12;31.60;99.90
31975;DHT22;18500;43.618;1.474;2023-07-13T14:46:38;30.70;99.90
31975;DHT22;18500;43.618;1.474;2023-07-13T14:51:52;28.90;99.90
31975;DHT22;18500;43.618;1.474;2023-07-13T14:54:19;27.50;99.90
31975;DHT22;18500;43.618;1.474;2023-07-13T14:56:45;27.80;99.90
31975;DHT22;18500;43.618;1.474;2023-07-13T14:59:10;28.10;99.90
31975;DHT22;18500;43.618;1.474;2023-07-13T15:01:37;28.10;99.90
31975;DHT22;18500;43.618;1.474;2023-07-13T15:04:04;28.70;99.90
31975;DHT22;18500;43.618;1.474;2023-07-13T15:06:30;29.00;99.90
31975;DHT22;18500;43.618;1.474;2023-07-13T15:08:56;28.50;99.90
31975;DHT22;18500;43.618;1.474;2023-07-13T15:11:22;28.40;99.90
31975;DHT22;18500;43.618;1.474;2023-07-13T15:13:48;27.60;99.90
31975;DHT22;18500;43.618;1.474;2023-07-13T15:16:15;27.20;99.90
31975;DHT22;18500;43.618;1.474;2023-07-13T15:18:42;27.60;99.90
31975;DHT22;18500;43.618;1.474;2023-07-13T15:21:08;27.80;99.90
31975;DHT22;18500;43.618;1.474;2023-07-13T15:23:35;28.00;99.90
31975;DHT22;18500;43.618;1.474;2023-07-13T15:26:00;27.20;99.90
31975;DHT22;18500;43.618;1.474;2023-07-13T15:28:26;27.30;99.90
31975;DHT22;18500;43.618;1.474;2023-07-13T15:30:51;27.40;99.90
31975;DHT22;18500;43.618;1.474;2023-07-13T15:33:20;27.30;99.90
31975;DHT22;18500;43.618;1.474;2023-07-13T15:35:47;26.90;99.90
31975;DHT22;18500;43.618;1.474;2023-07-13T15:38:18;27.10;99.90
31975;DHT22;18500;43.618;1.474;2023-07-13T15:40:44;27.00;1.00
31975;DHT22;18500;43.618;1.474;2023-07-13T15:43:10;26.60;99.90
31975;DHT22;18500;43.618;1.474;2023-07-13T15:45:36;26.70;99.90
31975;DHT22;18500;43.618;1.474;2023-07-13T15:48:01;26.60;99.90
31975;DHT22;18500;43.618;1.474;2023-07-13T15:50:29;26.90;99.90
31975;DHT22;18500;43.618;1.474;2023-07-13T15:53:04;26.90;99.90
31975;DHT22;18500;43.618;1.474;2023-07-13T15:55:29;27.10;99.90
31975;DHT22;18500;43.618;1.474;2023-07-13T15:57:55;26.70;99.90
31975;DHT22;18500;43.618;1.474;2023-07-13T16:00:24;26.70;99.90
31975;DHT22;18500;43.618;1.474;2023-07-13T16:02:51;26.90;99.90
31975;DHT22;18500;43.618;1.474;2023-07-13T16:05:17;26.80;99.90
31975;DHT22;18500;43.618;1.474;2023-07-13T16:07:46;26.70;99.90
31975;DHT22;18500;43.618;1.474;2023-07-13T16:10:13;26.40;99.90
31975;DHT22;18500;43.618;1.474;2023-07-13T16:12:39;26.50;99.90
31975;DHT22;18500;43.618;1.474;2023-07-13T16:15:08;26.20;99.90
31975;DHT22;18500;43.618;1.474;2023-07-13T16:17:37;26.10;1.00
31975;DHT22;18500;43.618;1.474;2023-07-13T16:20:03;26.10;99.90
31975;DHT22;18500;43.618;1.474;2023-07-13T16:22:29;26.00;99.90
31975;DHT22;18500;43.618;1.474;2023-07-13T16:24:54;25.90;99.90
31975;DHT22;18500;43.618;1.474;2023-07-13T16:27:21;25.80;99.90
31975;DHT22;18500;43.618;1.474;2023-07-13T16:29:49;25.90;99.90
31975;DHT22;18500;43.618;1.474;2023-07-13T16:32:15;25.70;99.90
31975;DHT22;18500;43.618;1.474;2023-07-13T16:34:41;25.70;99.90
31975;DHT22;18500;43.618;1.474;2023-07-13T16:37:17;25.60;99.90
31975;DHT22;18500;43.618;1.474;2023-07-13T16:39:45;25.50;99.90
31975;DHT22;18500;43.618;1.474;2023-07-13T16:42:11;25.50;99.90
31975;DHT22;18500;43.618;1.474;2023-07-13T16:44:36;25.50;99.90
31975;DHT22;18500;43.618;1.474;2023-07-13T16:47:05;25.40;99.90
31975;DHT22;18500;43.618;1.474;2023-07-13T16:49:31;25.30;99.90
31975;DHT22;18500;43.618;1.474;2023-07-13T16:51:57;25.30;99.90
31975;DHT22;18500;43.618;1.474;2023-07-13T16:54:30;25.50;99.90
31975;DHT22;18500;43.618;1.474;2023-07-13T16:56:56;25.30;99.90
31975;DHT22;18500;43.618;1.474;2023-07-13T16:59:22;25.00;99.90
31975;DHT22;18500;43.618;1.474;2023-07-13T17:01:49;25.10;99.90
31975;DHT22;18500;43.618;1.474;2023-07-13T17:04:15;24.80;99.90
31975;DHT22;18500;43.618;1.474;2023-07-13T17:06:47;24.70;99.90
31975;DHT22;18500;43.618;1.474;2023-07-13T17:09:12;24.70;99.90
31975;DHT22;18500;43.618;1.474;2023-07-13T17:11:39;24.80;99.90
31975;DHT22;18500;43.618;1.474;2023-07-13T17:14:11;24.70;99.90
31975;DHT22;18500;43.618;1.474;2023-07-13T17:16:40;24.60;99.90
31975;DHT22;18500;43.618;1.474;2023-07-13T17:19:09;24.60;99.90
31975;DHT22;18500;43.618;1.474;2023-07-13T17:21:35;24.70;99.90
31975;DHT22;18500;43.618;1.474;2023-07-13T17:24:01;24.60;99.90
31975;DHT22;18500;43.618;1.474;2023-07-13T17:26:27;24.50;99.90
31975;DHT22;18500;43.618;1.474;2023-07-13T17:28:54;24.50;99.90
31975;DHT22;18500;43.618;1.474;2023-07-13T17:31:20;24.40;99.90
31975;DHT22;18500;43.618;1.474;2023-07-13T17:33:46;24.30;99.90
31975;DHT22;18500;43.618;1.474;2023-07-13T17:36:13;24.40;99.90
31975;DHT22;18500;43.618;1.474;2023-07-13T17:38:46;24.30;99.90
31975;DHT22;18500;43.618;1.474;2023-07-13T17:41:16;24.30;99.90
31975;DHT22;18500;43.618;1.474;2023-07-13T17:43:42;24.20;99.90
31975;DHT22;18500;43.618;1.474;2023-07-13T17:46:11;24.10;99.90
31975;DHT22;18500;43.618;1.474;2023-07-13T17:48:37;24.20;99.90
31975;DHT22;18500;43.618;1.474;2023-07-13T17:51:03;24.10;99.90
31975;DHT22;18500;43.618;1.474;2023-07-13T17:53:28;24.00;99.90
31975;DHT22;18500;43.618;1.474;2023-07-13T17:55:54;24.00;99.90
31975;DHT22;18500;43.618;1.474;2023-07-13T17:58:19;24.00;99.90
31975;DHT22;18500;43.618;1.474;2023-07-13T18:00:46;24.00;99.90
31975;DHT22;18500;43.618;1.474;2023-07-13T18:03:19;23.90;1.00
31975;DHT22;18500;43.618;1.474;2023-07-13T18:05:45;24.00;1.00
31975;DHT22;18500;43.618;1.474;2023-07-13T18:08:45;24.00;99.90
31975;DHT22;18500;43.618;1.474;2023-07-13T18:11:04;23.90;99.90
31975;DHT22;18500;43.618;1.474;2023-07-13T18:13:29;23.80;99.90
31975;DHT22;18500;43.618;1.474;2023-07-13T18:15:59;23.60;1.00
31975;DHT22;18500;43.618;1.474;2023-07-13T18:18:25;23.50;1.00
31975;DHT22;18500;43.618;1.474;2023-07-13T18:20:51;23.60;1.00
31975;DHT22;18500;43.618;1.474;2023-07-13T18:23:19;23.50;1.00
31975;DHT22;18500;43.618;1.474;2023-07-13T18:25:45;23.50;1.00
31975;DHT22;18500;43.618;1.474;2023-07-13T18:28:11;23.40;1.00
31975;DHT22;18500;43.618;1.474;2023-07-13T18:30:38;23.40;1.00
31975;DHT22;18500;43.618;1.474;2023-07-13T18:33:04;23.30;1.00
31975;DHT22;18500;43.618;1.474;2023-07-13T18:35:33;23.50;1.00
31975;DHT22;18500;43.618;1.474;2023-07-13T18:37:58;23.40;1.00
31975;DHT22;18500;43.618;1.474;2023-07-13T18:40:24;23.40;1.00
31975;DHT22;18500;43.618;1.474;2023-07-13T18:42:50;23.40;1.00
31975;DHT22;18500;43.618;1.474;2023-07-13T18:45:17;23.30;1.00
31975;DHT22;18500;43.618;1.474;2023-07-13T18:47:43;23.20;1.00
31975;DHT22;18500;43.618;1.474;2023-07-13T18:50:12;23.10;1.00
31975;DHT22;18500;43.618;1.474;2023-07-13T18:52:40;23.10;1.00
31975;DHT22;18500;43.618;1.474;2023-07-13T18:55:12;23.00;1.00
31975;DHT22;18500;43.618;1.474;2023-07-13T18:57:37;22.90;1.00
31975;DHT22;18500;43.618;1.474;2023-07-13T19:00:03;22.80;1.00
31975;DHT22;18500;43.618;1.474;2023-07-13T19:02:29;22.80;1.00
31975;DHT22;18500;43.618;1.474;2023-07-13T19:04:56;22.80;1.00
31975;DHT22;18500;43.618;1.474;2023-07-13T19:07:24;22.70;1.00
31975;DHT22;18500;43.618;1.474;2023-07-13T19:09:53;22.70;1.00
31975;DHT22;18500;43.618;1.474;2023-07-13T19:12:20;22.60;1.00
31975;DHT22;18500;43.618;1.474;2023-07-13T19:14:47;22.60;1.00
31975;DHT22;18500;43.618;1.474;2023-07-13T19:17:14;22.50;1.00
31975;DHT22;18500;43.618;1.474;2023-07-13T19:19:39;22.30;1.00
31975;DHT22;18500;43.618;1.474;2023-07-13T19:22:05;22.30;1.00
31975;DHT22;18500;43.618;1.474;2023-07-13T19:24:32;22.20;1.00
31975;DHT22;18500;43.618;1.474;2023-07-13T19:26:58;22.20;1.00
31975;DHT22;18500;43.618;1.474;2023-07-13T19:29:24;22.10;1.00
31975;DHT22;18500;43.618;1.474;2023-07-13T19:31:50;22.00;1.00
31975;DHT22;18500;43.618;1.474;2023-07-13T19:34:21;21.90;1.00
31975;DHT22;18500;43.618;1.474;2023-07-13T19:36:47;21.90;1.00
31975;DHT22;18500;43.618;1.474;2023-07-13T19:39:33;21.80;1.00
31975;DHT22;18500;43.618;1.474;2023-07-13T19:42:02;21.80;1.00
31975;DHT22;18500;43.618;1.474;2023-07-13T19:44:29;21.70;1.00
31975;DHT22;18500;43.618;1.474;2023-07-13T19:46:54;21.60;1.00
31975;DHT22;18500;43.618;1.474;2023-07-13T19:49:24;21.50;1.00
31975;DHT22;18500;43.618;1.474;2023-07-13T19:51:50;21.40;1.00
31975;DHT22;18500;43.618;1.474;2023-07-13T19:54:15;21.20;1.00
31975;DHT22;18500;43.618;1.474;2023-07-13T19:56:44;21.20;1.00
31975;DHT22;18500;43.618;1.474;2023-07-13T19:59:21;21.10;1.00
31975;DHT22;18500;43.618;1.474;2023-07-13T20:01:47;21.10;1.00
31975;DHT22;18500;43.618;1.474;2023-07-13T20:04:12;21.00;1.00
31975;DHT22;18500;43.618;1.474;2023-07-13T20:06:38;20.90;1.00
31975;DHT22;18500;43.618;1.474;2023-07-13T20:09:22;20.90;1.00
31975;DHT22;18500;43.618;1.474;2023-07-13T20:11:48;20.80;1.00
31975;DHT22;18500;43.618;1.474;2023-07-13T20:14:24;20.80;1.00
31975;DHT22;18500;43.618;1.474;2023-07-13T20:17:01;20.70;1.00
31975;DHT22;18500;43.618;1.474;2023-07-13T20:19:27;20.70;1.00
31975;DHT22;18500;43.618;1.474;2023-07-13T20:21:55;20.60;1.00
31975;DHT22;18500;43.618;1.474;2023-07-13T20:24:21;20.60;1.00
31975;DHT22;18500;43.618;1.474;2023-07-13T20:26:47;20.50;1.00
31975;DHT22;18500;43.618;1.474;2023-07-13T20:29:13;20.40;1.00
31975;DHT22;18500;43.618;1.474;2023-07-13T20:31:39;20.40;1.00
31975;DHT22;18500;43.618;1.474;2023-07-13T20:34:05;20.40;1.00
31975;DHT22;18500;43.618;1.474;2023-07-13T20:36:31;20.30;1.00
31975;DHT22;18500;43.618;1.474;2023-07-13T20:38:57;20.30;1.00
31975;DHT22;18500;43.618;1.474;2023-07-13T20:41:23;20.20;1.00
31975;DHT22;18500;43.618;1.474;2023-07-13T20:43:49;20.20;1.00
31975;DHT22;18500;43.618;1.474;2023-07-13T20:46:15;20.10;1.00
31975;DHT22;18500;43.618;1.474;2023-07-13T20:48:43;20.10;1.00
31975;DHT22;18500;43.618;1.474;2023-07-13T20:51:16;20.10;1.00
31975;DHT22;18500;43.618;1.474;2023-07-13T20:53:42;20.00;1.00
31975;DHT22;18500;43.618;1.474;2023-07-13T20:56:12;20.00;1.00
31975;DHT22;18500;43.618;1.474;2023-07-13T20:58:38;20.00;1.00
31975;DHT22;18500;43.618;1.474;2023-07-13T21:01:04;19.90;1.00
31975;DHT22;18500;43.618;1.474;2023-07-13T21:03:29;19.90;1.00
31975;DHT22;18500;43.618;1.474;2023-07-13T21:05:58;19.90;1.00
31975;DHT22;18500;43.618;1.474;2023-07-13T21:08:30;19.80;1.00
31975;DHT22;18500;43.618;1.474;2023-07-13T21:10:55;19.70;1.00
31975;DHT22;18500;43.618;1.474;2023-07-13T21:13:21;19.70;1.00
31975;DHT22;18500;43.618;1.474;2023-07-13T21:15:46;19.60;1.00
31975;DHT22;18500;43.618;1.474;2023-07-13T21:18:15;19.60;1.00
31975;DHT22;18500;43.618;1.474;2023-07-13T21:20:41;19.60;1.00
31975;DHT22;18500;43.618;1.474;2023-07-13T21:25:52;19.50;1.00
31975;DHT22;18500;43.618;1.474;2023-07-13T21:28:18;19.40;1.00
31975;DHT22;18500;43.618;1.474;2023-07-13T21:30:43;19.40;1.00
31975;DHT22;18500;43.618;1.474;2023-07-13T21:33:12;19.30;1.00
31975;DHT22;18500;43.618;1.474;2023-07-13T21:35:39;19.30;1.00
31975;DHT22;18500;43.618;1.474;2023-07-13T21:41:01;19.20;1.00
31975;DHT22;18500;43.618;1.474;2023-07-13T21:43:28;19.20;1.00
31975;DHT22;18500;43.618;1.474;2023-07-13T21:45:53;19.20;1.00
31975;DHT22;18500;43.618;1.474;2023-07-13T21:48:19;19.20;1.00
31975;DHT22;18500;43.618;1.474;2023-07-13T21:50:47;19.10;1.00
31975;DHT22;18500;43.618;1.474;2023-07-13T21:55:46;19.10;1.00
31975;DHT22;18500;43.618;1.474;2023-07-13T21:58:16;19.10;1.00
31975;DHT22;18500;43.618;1.474;2023-07-13T22:00:42;19.00;1.00
31975;DHT22;18500;43.618;1.474;2023-07-13T22:05:49;18.90;1.00
31975;DHT22;18500;43.618;1.474;2023-07-13T22:08:15;18.90;1.00
31975;DHT22;18500;43.618;1.474;2023-07-13T22:10:41;18.90;1.00
31975;DHT22;18500;43.618;1.474;2023-07-13T22:13:08;18.80;1.00
31975;DHT22;18500;43.618;1.474;2023-07-13T22:15:34;18.80;1.00
31975;DHT22;18500;43.618;1.474;2023-07-13T22:18:01;18.70;1.00
31975;DHT22;18500;43.618;1.474;2023-07-13T22:20:27;18.70;1.00
31975;DHT22;18500;43.618;1.474;2023-07-13T22:22:53;18.60;1.00
31975;DHT22;18500;43.618;1.474;2023-07-13T22:25:18;18.60;1.00
31975;DHT22;18500;43.618;1.474;2023-07-13T22:27:45;18.60;1.00
31975;DHT22;18500;43.618;1.474;2023-07-13T22:30:12;18.60;1.00
31975;DHT22;18500;43.618;1.474;2023-07-13T22:32:38;18.50;1.00
31975;DHT22;18500;43.618;1.474;2023-07-13T22:35:04;18.50;1.00
31975;DHT22;18500;43.618;1.474;2023-07-13T22:37:30;18.40;1.00